Decoded Metar for KOFP (RICHMOND/HANOVER in VA, USA) (IATA:OFP) | Meteo·Mobile Aviation Weather
aviador You're here:

KOFP Decoded Metar

RICHMOND/HANOVER in VA, USA
Report Time2018-12-16 15:18:00
UTC Time2018-12-16 15:27:12
Flight Rules ifr IFR
Wind280° at 05 kt
W.Decomp.*RWY 34: 3.1 kt HW 3.9 kt LCW
W.Rank280° ranks 11
Current wind is below 280° avg. (7.5)
Visibility2816 m
Phenomena:Light Rain
Mist
Clouds:Broken 006 Hf
Overcast 011 Hf
Expected CloudBase > 800 ft AGL from Temp-Dew spread
Ceiling600 ft
Temp09°C (ISA -6)
Dew Point07°C (87% RH)
AAT6.5°C
QNH1012 hPa
Density Alt-299 ft
Elevation203 ft
Report Wrong Elevation
Raw Report
KOFP 161518Z AUTO 28005KT 1 3/4SM -RA BR BKN006 OVC011 09/07 A2987
RMK AO2 RAB04 P0001 T00890072=

Extra information for KOFP:More info

Metar Taf Metar & Taf Last 4 Metars F.Rules Stats Wind Profile Meteogram Temp Stats Airport Information Weather charts Add Link Nearby VenuesMetar ALERT Operation Metar Decoded Social comments

AIRNAV info for KOFP